Time;durP1;ratioP1;P1;durP2;ratioP2;P2;SDS_P1;SDS_P2;PMS_P1;PMS_P2;Temp;Humidity;BMP_temperature;BMP_pressure;BME280_temperature;BME280_humidity;BME280_pressure;Samples;Min_cycle;Max_cycle;Signal;HPM_P1;HPM_P2
2023/02/13 00:00:55;;;;;;;22.13;14.13;;;20.90;99.90;;;;;;5014785;28;20049;-50
2023/02/13 00:03:20;;;;;;;24.65;14.98;;;20.90;99.90;;;;;;5015049;28;20417;-50
2023/02/13 00:05:46;;;;;;;28.13;14.13;;;20.90;99.90;;;;;;5014827;28;20030;-50
2023/02/13 00:08:12;;;;;;;26.08;14.70;;;20.90;99.90;;;;;;5002150;28;20049;-48
2023/02/13 00:10:38;;;;;;;21.60;13.15;;;20.80;99.90;;;;;;5014902;28;20029;-53
2023/02/13 00:13:04;;;;;;;21.77;13.57;;;20.90;99.90;;;;;;5014371;28;20546;-54
2023/02/13 00:15:29;;;;;;;24.92;14.00;;;20.80;99.90;;;;;;4996033;28;20492;-54
2023/02/13 00:17:55;;;;;;;20.90;14.07;;;20.80;99.90;;;;;;5014710;28;20105;-54
2023/02/13 00:20:21;;;;;;;20.75;12.60;;;20.80;99.90;;;;;;5014133;28;20030;-54
2023/02/13 00:22:47;;;;;;;21.60;12.73;;;20.80;99.90;;;;;;4997453;28;20026;-55
2023/02/13 00:25:13;;;;;;;25.83;12.25;;;20.80;99.90;;;;;;5014352;28;20030;-54
2023/02/13 00:27:38;;;;;;;22.17;13.30;;;20.70;99.90;;;;;;5014026;28;20145;-55
2023/02/13 00:30:05;;;;;;;23.80;14.63;;;20.70;99.90;;;;;;5014480;28;20400;-58
2023/02/13 00:32:30;;;;;;;27.98;14.82;;;20.70;99.90;;;;;;4996779;28;20026;-54
2023/02/13 00:34:57;;;;;;;24.75;15.07;;;20.70;99.90;;;;;;5014003;28;20041;-50
2023/02/13 00:37:23;;;;;;;26.45;14.05;;;20.70;99.90;;;;;;5014358;28;20018;-50
2023/02/13 00:39:49;;;;;;;24.45;13.80;;;20.70;99.90;;;;;;5014216;28;20025;-51
2023/02/13 00:42:15;;;;;;;24.23;13.73;;;20.70;99.90;;;;;;5014068;28;20030;-51
2023/02/13 00:44:41;;;;;;;21.42;13.65;;;20.70;99.90;;;;;;5014167;28;20025;-51
2023/02/13 00:47:06;;;;;;;24.17;14.10;;;20.70;99.90;;;;;;5014346;28;20057;-56
2023/02/13 00:49:32;;;;;;;24.08;12.80;;;20.70;99.90;;;;;;5013786;28;20022;-53
2023/02/13 00:51:58;;;;;;;26.23;14.02;;;20.60;99.90;;;;;;5014237;28;20026;-53
2023/02/13 00:54:23;;;;;;;22.77;13.10;;;20.60;99.90;;;;;;5013847;28;20120;-52
2023/02/13 00:56:49;;;;;;;22.17;14.00;;;20.60;99.90;;;;;;5013949;28;20013;-53
2023/02/13 00:59:16;;;;;;;20.85;13.38;;;20.60;99.90;;;;;;5014612;28;20383;-52
2023/02/13 01:01:42;;;;;;;21.73;13.38;;;20.60;99.90;;;;;;5013738;28;20125;-49
2023/02/13 01:04:08;;;;;;;23.17;14.07;;;20.60;99.90;;;;;;5013359;28;20112;-52
2023/02/13 01:06:33;;;;;;;27.33;14.60;;;20.60;99.90;;;;;;5013356;28;20040;-54
2023/02/13 01:08:59;;;;;;;26.25;12.63;;;20.60;99.90;;;;;;5013636;28;20022;-51
2023/02/13 01:11:25;;;;;;;22.05;15.05;;;20.50;99.90;;;;;;5013122;28;20018;-57
2023/02/13 01:13:51;;;;;;;26.33;13.48;;;20.50;99.90;;;;;;5013287;28;20030;-54
2023/02/13 01:16:17;;;;;;;23.27;14.25;;;20.50;99.90;;;;;;5013109;28;20530;-55
2023/02/13 01:18:43;;;;;;;25.17;16.17;;;20.50;99.90;;;;;;4995245;28;20050;-50
2023/02/13 01:21:16;;;;;;;27.58;14.90;;;20.50;99.90;;;;;;5013659;28;20029;-51
2023/02/13 01:23:42;;;;;;;25.77;15.38;;;20.50;99.90;;;;;;4995871;28;20025;-51
2023/02/13 01:26:12;;;;;;;27.70;15.73;;;20.50;99.90;;;;;;5012827;28;20381;-51
2023/02/13 01:28:38;;;;;;;23.17;15.57;;;20.50;99.90;;;;;;5013413;28;20420;-52
2023/02/13 01:31:04;;;;;;;26.85;16.05;;;20.50;99.90;;;;;;5012927;28;20164;-51
2023/02/13 01:33:30;;;;;;;28.00;15.38;;;20.50;99.90;;;;;;5000278;28;20088;-52
2023/02/13 01:35:56;;;;;;;22.63;14.52;;;20.60;99.90;;;;;;5013330;28;20038;-53
2023/02/13 01:38:21;;;;;;;24.67;13.07;;;20.60;99.90;;;;;;5013336;28;20026;-53
2023/02/13 01:40:49;;;;;;;28.05;13.32;;;20.70;99.90;;;;;;5030485;28;20101;-54
2023/02/13 01:43:15;;;;;;;23.10;14.27;;;20.70;99.90;;;;;;5032584;28;20109;-53
2023/02/13 01:45:44;;;;;;;24.73;12.55;;;20.70;99.90;;;;;;5014265;28;20029;-53
2023/02/13 01:48:18;;;;;;;20.55;12.80;;;20.70;99.90;;;;;;5013052;28;20018;-54
2023/02/13 01:50:50;;;;;;;22.15;13.30;;;20.70;99.90;;;;;;5012688;28;20030;-54
2023/02/13 01:53:33;;;;;;;23.63;12.70;;;20.70;99.90;;;;;;5013122;28;20025;-54
2023/02/13 01:56:01;;;;;;;21.85;12.18;;;20.70;99.90;;;;;;5032702;28;20363;-54
2023/02/13 01:58:32;;;;;;;19.33;11.48;;;20.60;99.90;;;;;;5011567;28;20054;-55
2023/02/13 02:00:59;;;;;;;18.60;11.82;;;20.60;99.90;;;;;;5012981;28;20500;-53
2023/02/13 02:03:34;;;;;;;21.67;12.43;;;20.60;99.90;;;;;;5009808;28;20060;-54
2023/02/13 02:06:02;;;;;;;21.42;12.35;;;20.60;99.90;;;;;;5012193;28;20454;-55
2023/02/13 02:08:29;;;;;;;17.88;11.55;;;20.60;99.90;;;;;;4995213;28;20484;-54
2023/02/13 02:10:59;;;;;;;17.75;10.88;;;20.60;99.90;;;;;;4978555;28;20033;-54
2023/02/13 02:13:25;;;;;;;20.60;11.90;;;20.50;99.90;;;;;;5011401;28;20032;-54
2023/02/13 02:15:51;;;;;;;19.67;11.18;;;20.50;99.90;;;;;;5012790;28;20080;-54
2023/02/13 02:18:19;;;;;;;21.42;12.57;;;20.50;99.90;;;;;;5012884;28;20018;-54
2023/02/13 02:20:57;;;;;;;20.15;11.43;;;20.50;99.90;;;;;;5010515;28;20025;-53
2023/02/13 02:23:23;;;;;;;;;;;20.50;99.90;;;;;;5012772;28;20032;-55
2023/02/13 02:26:00;;;;;;;20.83;11.55;;;20.50;99.90;;;;;;5011512;28;19905;-55
2023/02/13 02:28:53;;;;;;;19.13;11.48;;;20.40;99.90;;;;;;5012707;28;20026;-54
2023/02/13 02:31:55;;;;;;;19.35;10.90;;;20.40;99.90;;;;;;4990293;28;20041;-54
2023/02/13 02:34:57;;;;;;;16.80;10.13;;;20.40;99.90;;;;;;4991754;28;20065;-54
2023/02/13 02:37:44;;;;;;;16.38;10.45;;;20.30;99.90;;;;;;4992478;28;20026;-53
2023/02/13 02:40:19;;;;;;;20.80;11.75;;;20.40;99.90;;;;;;4991656;28;20109;-54
2023/02/13 02:42:56;;;;;;;16.55;9.82;;;20.30;99.90;;;;;;4992914;28;20022;-54
2023/02/13 02:45:22;;;;;;;21.50;11.32;;;20.30;99.90;;;;;;4992943;28;20054;-54
2023/02/13 02:51:20;;;;;;;14.93;9.05;;;20.30;99.90;;;;;;5012381;28;20448;-54
2023/02/13 02:53:51;;;;;;;16.67;9.95;;;20.30;99.90;;;;;;4994809;28;20034;-53
2023/02/13 02:56:51;;;;;;;15.18;9.48;;;20.20;99.90;;;;;;4992847;28;20018;-54
2023/02/13 03:07:34;;;;;;;12.27;8.27;;;20.20;99.90;;;;;;4991192;28;20042;-50
2023/02/13 03:13:20;;;;;;;17.08;9.00;;;20.20;99.90;;;;;;4992863;28;20038;-50
2023/02/13 03:24:51;;;;;;;13.43;8.00;;;20.10;99.90;;;;;;5011425;28;20614;-51
2023/02/13 03:31:00;;;;;;;14.18;7.72;;;20.10;99.90;;;;;;5012147;28;20032;-50
2023/02/13 03:33:53;;;;;;;13.05;7.43;;;20.00;99.90;;;;;;5012016;28;20042;-49
2023/02/13 03:39:16;;;;;;;13.98;8.43;;;20.00;99.90;;;;;;5012038;28;20559;-48
2023/02/13 03:41:56;;;;;;;15.80;7.80;;;20.00;99.90;;;;;;5012286;28;20026;-48
2023/02/13 03:44:45;;;;;;;11.98;7.13;;;20.00;99.90;;;;;;5011974;28;20026;-48
2023/02/13 03:47:12;;;;;;;13.20;7.07;;;20.00;99.90;;;;;;4994548;28;20117;-48
2023/02/13 03:50:04;;;;;;;11.57;7.18;;;19.90;99.90;;;;;;5013396;28;20487;-48
2023/02/13 03:52:42;;;;;;;11.77;7.30;;;19.90;99.90;;;;;;5015275;28;20032;-49
2023/02/13 04:01:05;;;;;;;13.38;7.18;;;19.90;99.90;;;;;;5042600;23;20061;-52
2023/02/13 04:03:53;;;;;;;11.57;6.65;;;19.90;99.90;;;;;;5035170;28;20383;-52
2023/02/13 04:06:25;;;;;;;12.55;6.88;;;19.90;99.90;;;;;;5035016;28;20044;-53
2023/02/13 04:08:51;;;;;;;12.95;6.70;;;19.90;99.90;;;;;;5017233;28;20028;-53
2023/02/13 04:11:53;;;;;;;12.63;7.68;;;19.80;99.90;;;;;;5017245;28;20033;-53
2023/02/13 04:14:27;;;;;;;14.48;6.80;;;19.80;99.90;;;;;;5034642;28;20087;-52
2023/02/13 04:17:02;;;;;;;12.93;7.20;;;19.80;99.90;;;;;;5034885;28;20108;-54
2023/02/13 04:19:28;;;;;;;11.77;6.35;;;19.80;99.90;;;;;;5034707;28;20457;-52
2023/02/13 04:22:00;;;;;;;13.10;6.30;;;19.80;99.90;;;;;;5034823;28;20033;-52
2023/02/13 04:24:27;;;;;;;10.57;6.07;;;19.80;99.90;;;;;;5034935;28;20037;-53
2023/02/13 04:26:54;;;;;;;10.03;6.30;;;19.80;99.90;;;;;;5034849;28;20037;-53
2023/02/13 04:29:24;;;;;;;11.02;6.57;;;19.80;99.90;;;;;;5034739;28;20324;-53
2023/02/13 04:31:50;;;;;;;9.82;5.53;;;19.70;99.90;;;;;;5034585;28;20124;-53
2023/02/13 04:34:17;;;;;;;10.80;6.40;;;19.70;99.90;;;;;;5032330;28;20475;-54
2023/02/13 04:36:42;;;;;;;9.40;6.60;;;19.70;99.90;;;;;;5032916;28;20451;-53
2023/02/13 04:39:09;;;;;;;12.48;6.57;;;19.70;99.90;;;;;;5033012;28;20057;-53
2023/02/13 04:41:35;;;;;;;11.38;6.85;;;19.70;99.90;;;;;;5032764;28;20077;-53
2023/02/13 04:44:01;;;;;;;10.65;5.97;;;19.70;99.90;;;;;;5034182;28;20041;-53
2023/02/13 04:46:26;;;;;;;9.50;6.53;;;19.70;99.90;;;;;;5034199;28;20025;-53
2023/02/13 04:48:52;;;;;;;12.15;6.47;;;19.70;99.90;;;;;;5034327;28;20021;-54
2023/02/13 04:51:18;;;;;;;11.57;6.65;;;19.70;99.90;;;;;;5034138;28;20049;-53
2023/02/13 04:53:44;;;;;;;13.77;6.30;;;19.70;99.90;;;;;;5034413;28;20033;-53
2023/02/13 04:56:10;;;;;;;11.50;6.85;;;19.60;99.90;;;;;;5034239;28;20029;-52
2023/02/13 04:58:36;;;;;;;10.45;6.07;;;19.60;99.90;;;;;;5033313;28;20025;-55
2023/02/13 05:01:01;;;;;;;10.45;6.13;;;19.60;99.90;;;;;;5034227;28;20111;-54
2023/02/13 05:03:27;;;;;;;11.80;6.43;;;19.60;99.90;;;;;;5033969;28;20029;-54
2023/02/13 05:05:53;;;;;;;13.55;6.07;;;19.60;99.90;;;;;;5033983;28;20051;-54
2023/02/13 05:08:19;;;;;;;11.48;5.97;;;19.60;99.90;;;;;;5033957;28;20047;-54
2023/02/13 05:10:44;;;;;;;12.90;6.75;;;19.60;99.90;;;;;;5034198;28;20117;-53
2023/02/13 05:13:10;;;;;;;11.15;5.75;;;19.60;99.90;;;;;;5033630;28;20536;-53
2023/02/13 05:15:36;;;;;;;9.65;5.82;;;19.60;99.90;;;;;;5033868;28;20532;-53
2023/02/13 05:18:02;;;;;;;16.17;6.00;;;19.60;99.90;;;;;;5033636;28;20104;-53
2023/02/13 05:20:28;;;;;;;9.38;5.25;;;19.60;99.90;;;;;;5033872;28;20478;-53
2023/02/13 05:25:41;;;;;;;11.57;6.03;;;19.50;99.90;;;;;;5033684;28;20079;-53
2023/02/13 05:30:52;;;;;;;9.82;5.43;;;19.50;99.90;;;;;;5033785;28;20399;-54
2023/02/13 05:33:17;;;;;;;12.18;7.45;;;19.50;99.90;;;;;;5033585;28;20100;-53
2023/02/13 05:35:43;;;;;;;11.25;5.75;;;19.50;99.90;;;;;;5033441;28;20518;-53
2023/02/13 05:38:09;;;;;;;9.50;5.40;;;19.50;99.90;;;;;;5033337;28;20520;-53
2023/02/13 05:40:35;;;;;;;8.73;5.50;;;19.50;99.90;;;;;;5033347;28;20025;-53
2023/02/13 05:43:01;;;;;;;9.38;5.93;;;19.50;99.90;;;;;;5033199;28;20078;-53
2023/02/13 05:45:26;;;;;;;12.57;6.28;;;19.50;99.90;;;;;;5033242;28;20042;-54
2023/02/13 05:47:52;;;;;;;8.77;5.15;;;19.50;99.90;;;;;;5015485;28;20025;-53
2023/02/13 05:50:18;;;;;;;10.52;5.53;;;19.40;99.90;;;;;;5033357;28;20025;-53
2023/02/13 05:52:44;;;;;;;8.60;5.68;;;19.50;99.90;;;;;;5015354;28;20103;-52
2023/02/13 05:55:09;;;;;;;11.10;5.93;;;19.50;99.90;;;;;;5032846;28;20034;-53
2023/02/13 05:57:35;;;;;;;8.48;5.18;;;19.40;99.90;;;;;;5032884;28;20021;-53
2023/02/13 06:00:02;;;;;;;10.98;6.07;;;19.40;99.90;;;;;;5032808;28;20048;-53
2023/02/13 06:02:28;;;;;;;10.57;5.23;;;19.40;99.90;;;;;;5031026;28;20087;-53
2023/02/13 06:04:53;;;;;;;11.18;6.13;;;19.40;99.90;;;;;;5032650;28;20021;-54
2023/02/13 06:07:19;;;;;;;10.38;5.22;;;19.40;99.90;;;;;;5033102;28;20025;-53
2023/02/13 06:09:45;;;;;;;10.02;5.80;;;19.40;99.90;;;;;;5032787;28;20029;-57
2023/02/13 06:12:11;;;;;;;9.95;5.68;;;19.40;99.90;;;;;;5032687;28;20081;-54
2023/02/13 06:14:36;;;;;;;11.38;6.28;;;19.40;99.90;;;;;;5014882;28;20129;-54
2023/02/13 06:17:02;;;;;;;11.35;5.13;;;19.40;99.90;;;;;;5032806;28;20049;-54
2023/02/13 06:19:28;;;;;;;11.73;6.07;;;19.30;99.90;;;;;;5032554;28;20029;-54
2023/02/13 06:21:54;;;;;;;10.27;6.00;;;19.40;99.90;;;;;;5032393;28;20468;-53
2023/02/13 06:24:19;;;;;;;10.68;6.45;;;19.30;99.90;;;;;;5032808;28;20022;-53
2023/02/13 06:26:45;;;;;;;9.48;5.90;;;19.30;99.90;;;;;;5032313;28;20022;-53
2023/02/13 06:29:11;;;;;;;10.68;5.43;;;19.30;99.90;;;;;;5032523;28;20108;-53
2023/02/13 06:31:37;;;;;;;11.88;5.85;;;19.30;99.90;;;;;;5031643;28;20032;-53
2023/02/13 06:34:03;;;;;;;9.75;5.70;;;19.30;99.90;;;;;;5032284;28;20040;-53
2023/02/13 06:36:29;;;;;;;11.43;5.95;;;19.30;99.90;;;;;;5032492;28;20022;-53
2023/02/13 06:38:55;;;;;;;12.43;5.65;;;19.30;99.90;;;;;;5032324;28;20025;-53
2023/02/13 06:41:21;;;;;;;15.25;6.03;;;19.30;99.90;;;;;;5032495;28;20056;-54
2023/02/13 06:43:46;;;;;;;11.00;6.03;;;19.30;99.90;;;;;;5032196;28;20040;-53
2023/02/13 06:46:12;;;;;;;10.48;5.47;;;19.30;99.90;;;;;;5032239;28;20113;-52
2023/02/13 06:48:38;;;;;;;11.40;5.70;;;19.30;99.90;;;;;;5032206;28;20022;-54
2023/02/13 06:51:04;;;;;;;10.60;5.40;;;19.30;99.90;;;;;;5032084;28;20386;-55
2023/02/13 06:53:30;;;;;;;9.70;5.43;;;19.30;99.90;;;;;;5031921;28;20075;-55
2023/02/13 06:55:56;;;;;;;9.90;5.35;;;19.30;99.90;;;;;;5032047;28;20037;-54
2023/02/13 06:58:23;;;;;;;8.70;5.18;;;19.20;99.90;;;;;;5032372;28;20021;-53
2023/02/13 07:00:50;;;;;;;10.18;6.88;;;19.30;99.90;;;;;;5031807;28;20506;-53
2023/02/13 07:03:16;;;;;;;11.68;5.40;;;19.20;99.90;;;;;;5031954;28;20113;-54
2023/02/13 07:05:43;;;;;;;11.05;5.88;;;19.20;99.90;;;;;;5032069;28;20447;-54
2023/02/13 07:08:10;;;;;;;11.77;6.10;;;19.20;99.90;;;;;;5032020;28;20036;-54
2023/02/13 07:10:40;;;;;;;9.47;5.27;;;19.20;99.90;;;;;;5014051;28;20029;-54
2023/02/13 07:13:07;;;;;;;10.30;6.30;;;19.20;99.90;;;;;;5031809;28;20025;-54
2023/02/13 07:15:33;;;;;;;12.20;6.13;;;19.20;99.90;;;;;;5031903;28;20391;-54
2023/02/13 07:17:59;;;;;;;13.15;6.18;;;19.20;99.90;;;;;;5031940;28;20029;-54
2023/02/13 07:20:26;;;;;;;12.52;6.25;;;19.20;99.90;;;;;;5014480;28;20036;-54
2023/02/13 07:22:52;;;;;;;11.20;5.90;;;19.20;99.90;;;;;;5032156;28;20108;-53
2023/02/13 07:25:18;;;;;;;12.32;6.85;;;19.20;99.90;;;;;;5034655;28;20499;-54
2023/02/13 07:27:44;;;;;;;10.38;6.50;;;19.20;99.90;;;;;;5033548;28;20383;-54
2023/02/13 07:30:10;;;;;;;12.05;6.72;;;19.20;99.90;;;;;;5035333;28;20022;-54
2023/02/13 07:32:36;;;;;;;12.55;6.45;;;19.10;99.90;;;;;;5035494;28;20025;-53
2023/02/13 07:35:02;;;;;;;13.70;7.18;;;19.20;99.90;;;;;;5035486;28;20030;-56
2023/02/13 07:37:30;;;;;;;11.73;6.68;;;19.20;99.90;;;;;;5033925;28;20014;-53
2023/02/13 07:39:56;;;;;;;10.18;5.75;;;19.20;99.90;;;;;;5033000;28;20014;-54
2023/02/13 07:42:21;;;;;;;10.02;6.53;;;19.20;99.90;;;;;;5034299;28;20021;-54
2023/02/13 07:44:47;;;;;;;15.65;6.78;;;19.20;99.90;;;;;;5034317;28;20056;-53
2023/02/13 07:47:13;;;;;;;13.07;7.28;;;19.20;99.90;;;;;;5033923;28;20021;-54
2023/02/13 07:49:39;;;;;;;10.77;6.55;;;19.20;99.90;;;;;;5035047;28;20029;-55
2023/02/13 07:52:05;;;;;;;9.98;6.40;;;19.20;99.90;;;;;;5032911;28;20406;-53
2023/02/13 07:54:31;;;;;;;12.40;7.10;;;19.20;99.90;;;;;;5035191;28;20033;-53
2023/02/13 07:56:58;;;;;;;12.63;7.50;;;19.20;99.90;;;;;;5032950;28;20029;-55
2023/02/13 07:59:24;;;;;;;11.73;7.28;;;19.20;99.90;;;;;;5035241;28;20017;-54
2023/02/13 08:01:50;;;;;;;12.13;7.35;;;19.20;99.90;;;;;;5032492;28;20045;-53
2023/02/13 08:04:16;;;;;;;12.27;7.47;;;19.20;99.90;;;;;;5033701;28;20030;-53
2023/02/13 08:06:42;;;;;;;11.32;7.00;;;19.20;99.90;;;;;;5032291;28;20082;-54
2023/02/13 08:12:00;;;;;;;12.23;7.03;;;19.20;99.90;;;;;;5034028;28;20084;-53
2023/02/13 08:14:26;;;;;;;16.33;7.90;;;19.30;99.90;;;;;;5034894;28;20029;-53
2023/02/13 08:16:53;;;;;;;12.13;6.82;;;19.30;99.90;;;;;;5034738;28;20471;-53
2023/02/13 08:19:19;;;;;;;10.55;8.18;;;19.30;99.90;;;;;;5034848;28;20036;-53
2023/02/13 08:21:45;;;;;;;12.32;6.88;;;19.30;99.90;;;;;;5034624;28;20034;-54
2023/02/13 08:24:11;;;;;;;11.02;7.07;;;19.30;99.90;;;;;;5034553;28;20413;-53
2023/02/13 08:26:37;;;;;;;12.75;7.90;;;19.40;99.90;;;;;;5034586;28;20088;-53
2023/02/13 08:29:04;;;;;;;12.75;6.82;;;19.40;99.90;;;;;;5034443;28;20124;-53
2023/02/13 08:31:30;;;;;;;8.87;6.47;;;19.40;99.90;;;;;;5033723;28;20033;-53
2023/02/13 08:33:56;;;;;;;13.82;7.05;;;19.40;99.90;;;;;;5034452;28;20033;-53
2023/02/13 08:36:23;;;;;;;11.32;6.90;;;19.40;99.90;;;;;;5033394;28;20387;-54
2023/02/13 08:38:49;;;;;;;12.48;6.40;;;19.40;99.90;;;;;;5016631;28;20067;-54
2023/02/13 08:41:20;;;;;;;14.45;8.18;;;19.40;99.90;;;;;;5034234;28;20036;-53
2023/02/13 08:43:47;;;;;;;10.25;6.75;;;19.50;99.90;;;;;;5034210;28;20470;-53
2023/02/13 08:46:13;;;;;;;14.68;6.70;;;19.50;99.90;;;;;;5034195;28;20032;-53
2023/02/13 08:48:39;;;;;;;12.73;7.05;;;19.50;99.90;;;;;;5034294;28;20029;-53
2023/02/13 08:51:11;;;;;;;14.18;7.22;;;19.50;99.90;;;;;;5034245;28;20030;-53
2023/02/13 08:53:37;;;;;;;12.95;7.07;;;19.50;99.90;;;;;;5034021;28;20026;-53
2023/02/13 08:56:04;;;;;;;12.25;6.90;;;19.50;99.90;;;;;;5034063;28;20376;-54
2023/02/13 08:58:30;;;;;;;17.30;6.70;;;19.50;99.90;;;;;;5034304;28;20048;-54
2023/02/13 09:00:56;;;;;;;14.00;6.72;;;19.60;99.90;;;;;;5033773;28;20506;-55
2023/02/13 09:03:22;;;;;;;11.15;6.57;;;19.60;99.90;;;;;;5033655;28;20026;-54
2023/02/13 09:05:48;;;;;;;11.00;7.38;;;19.60;99.90;;;;;;5033806;28;20409;-53
2023/02/13 09:08:14;;;;;;;10.40;6.78;;;19.60;99.90;;;;;;5033914;28;20033;-53
2023/02/13 09:10:42;;;;;;;16.13;7.28;;;19.60;99.90;;;;;;5033639;28;20071;-53
2023/02/13 09:13:08;;;;;;;12.32;6.40;;;19.60;99.90;;;;;;5033694;28;20075;-53
2023/02/13 09:15:39;;;;;;;12.40;6.60;;;19.60;99.90;;;;;;5033460;28;20167;-55
2023/02/13 09:18:05;;;;;;;9.93;6.30;;;19.60;99.90;;;;;;5033437;28;20026;-55
2023/02/13 09:20:31;;;;;;;10.32;6.15;;;19.60;99.90;;;;;;5033803;28;20097;-54
2023/02/13 09:22:57;;;;;;;9.95;6.50;;;19.60;99.90;;;;;;5033356;28;20112;-54
2023/02/13 09:25:22;;;;;;;12.05;6.63;;;19.60;99.90;;;;;;5015408;28;20048;-55
2023/02/13 09:27:48;;;;;;;13.55;6.80;;;19.60;99.90;;;;;;5015421;28;20478;-54
2023/02/13 09:30:21;;;;;;;11.65;6.55;;;19.60;99.90;;;;;;5033006;28;20025;-54
2023/02/13 09:32:48;;;;;;;15.77;7.43;;;19.60;99.90;;;;;;5032976;28;20021;-58
2023/02/13 09:35:14;;;;;;;11.60;6.87;;;19.60;99.90;;;;;;5014914;28;20076;-56
2023/02/13 09:37:40;;;;;;;14.45;7.28;;;19.60;99.90;;;;;;5032920;28;20282;-58
2023/02/13 09:40:22;;;;;;;11.18;6.70;;;19.60;99.90;;;;;;5032607;28;20049;-55
2023/02/13 09:42:49;;;;;;;12.63;6.82;;;19.60;99.90;;;;;;5032926;28;20083;-57
2023/02/13 09:45:18;;;;;;;10.40;6.13;;;19.70;99.90;;;;;;5032511;28;20032;-54
2023/02/13 09:47:44;;;;;;;15.05;7.00;;;19.70;99.90;;;;;;5032438;28;20108;-54
2023/02/13 09:50:10;;;;;;;12.73;6.70;;;19.70;99.90;;;;;;5032496;28;20026;-55
2023/02/13 09:52:37;;;;;;;11.52;6.38;;;19.70;99.90;;;;;;5032329;28;20025;-54
2023/02/13 09:55:36;;;;;;;15.20;6.82;;;19.70;99.90;;;;;;5032571;28;20042;-57
2023/02/13 09:58:20;;;;;;;11.23;6.30;;;19.70;99.90;;;;;;5028215;28;20080;-61
2023/02/13 10:00:52;;;;;;;12.52;6.22;;;19.70;99.90;;;;;;5024887;28;20045;-61
2023/02/13 10:03:26;;;;;;;14.15;6.35;;;19.70;99.90;;;;;;5018353;28;20026;-62
2023/02/13 10:05:59;;;;;;;15.00;6.47;;;19.70;99.90;;;;;;5008114;28;20499;-60
2023/02/13 10:08:33;;;;;;;12.45;6.43;;;19.80;99.90;;;;;;5029057;28;20108;-62
2023/02/13 10:11:17;;;;;;;13.93;5.72;;;19.70;99.90;;;;;;5028857;28;20025;-61
2023/02/13 10:13:49;;;;;;;11.77;5.63;;;19.80;99.90;;;;;;5010213;28;20021;-62
2023/02/13 10:16:33;;;;;;;13.43;6.95;;;19.80;99.90;;;;;;5029071;28;20517;-62
2023/02/13 10:19:20;;;;;;;14.02;6.82;;;19.80;99.90;;;;;;5017313;28;20033;-61
2023/02/13 10:21:52;;;;;;;9.65;5.55;;;19.80;99.90;;;;;;5026938;28;20036;-61
2023/02/13 10:24:36;;;;;;;12.57;5.80;;;19.80;99.90;;;;;;5012529;28;20325;-61
2023/02/13 10:27:28;;;;;;;12.80;5.05;;;19.90;99.90;;;;;;5027747;28;20021;-61
2023/02/13 10:30:20;;;;;;;10.70;5.45;;;19.90;99.90;;;;;;5024901;28;21163;-58
2023/02/13 10:33:19;;;;;;;9.63;5.88;;;19.80;99.90;;;;;;5021949;28;20372;-61
2023/02/13 10:36:01;;;;;;;14.60;5.70;;;19.90;99.90;;;;;;5028135;28;20037;-60
2023/02/13 10:38:30;;;;;;;12.02;5.85;;;19.90;99.90;;;;;;5027282;28;20514;-58
2023/02/13 10:41:04;;;;;;;9.98;5.50;;;19.90;99.90;;;;;;4996072;28;20049;-59
2023/02/13 10:43:45;;;;;;;11.15;5.70;;;19.90;99.90;;;;;;5025764;28;20530;-58
2023/02/13 10:46:35;;;;;;;11.73;5.85;;;19.90;99.90;;;;;;5019523;28;20069;-59
2023/02/13 10:49:27;;;;;;;12.63;5.53;;;19.90;99.90;;;;;;5027662;28;20487;-60
2023/02/13 10:51:59;;;;;;;15.55;5.93;;;19.90;99.90;;;;;;5014038;28;20041;-60
2023/02/13 10:55:10;;;;;;;13.45;5.70;;;19.90;99.90;;;;;;5011549;28;20037;-60
2023/02/13 10:57:45;;;;;;;10.23;5.07;;;19.90;99.90;;;;;;4995614;28;20050;-60
2023/02/13 11:00:20;;;;;;;10.98;5.03;;;19.90;99.90;;;;;;4993038;28;20057;-59
2023/02/13 11:02:46;;;;;;;13.05;5.13;;;19.90;99.90;;;;;;5026295;28;20043;-60
2023/02/13 11:05:38;;;;;;;8.35;4.88;;;19.90;99.90;;;;;;5024033;28;20026;-59
2023/02/13 11:08:27;;;;;;;10.20;5.07;;;19.90;99.90;;;;;;5011954;28;20046;-58
2023/02/13 11:10:53;;;;;;;10.70;4.72;;;19.90;99.90;;;;;;5012737;28;20058;-57
2023/02/13 11:13:25;;;;;;;14.15;5.20;;;19.90;99.90;;;;;;5025085;28;20436;-58
2023/02/13 11:16:05;;;;;;;11.63;5.00;;;19.90;99.90;;;;;;5026706;28;20442;-57
2023/02/13 11:18:37;;;;;;;10.60;4.20;;;19.90;99.90;;;;;;5011005;28;20120;-57
2023/02/13 11:21:33;;;;;;;12.98;4.90;;;20.00;99.90;;;;;;5015981;28;20030;-58
2023/02/13 11:23:59;;;;;;;8.55;4.43;;;19.90;99.90;;;;;;5005807;28;20033;-58
2023/02/13 11:26:28;;;;;;;12.40;5.43;;;20.00;99.90;;;;;;5025152;28;20040;-56
2023/02/13 11:29:14;;;;;;;10.90;5.32;;;20.00;99.90;;;;;;5002501;28;20352;-51
2023/02/13 11:31:40;;;;;;;14.75;5.38;;;20.00;99.90;;;;;;5020774;28;20156;-52
2023/02/13 11:34:21;;;;;;;11.07;5.05;;;20.10;99.90;;;;;;5020021;28;20150;-58
2023/02/13 11:36:53;;;;;;;11.40;4.60;;;20.10;99.90;;;;;;5023456;28;20029;-59
2023/02/13 11:39:25;;;;;;;9.80;4.65;;;20.20;99.90;;;;;;5022926;28;20032;-59
2023/02/13 11:41:51;;;;;;;14.73;5.63;;;20.20;99.90;;;;;;5014965;28;20032;-58
2023/02/13 11:44:26;;;;;;;10.32;4.90;;;20.30;99.90;;;;;;5008730;28;20384;-58
2023/02/13 11:46:54;;;;;;;12.27;4.63;;;20.30;99.90;;;;;;5022754;28;20006;-57
2023/02/13 11:49:21;;;;;;;10.07;4.78;;;20.30;99.90;;;;;;5023203;28;20021;-57
2023/02/13 11:51:57;;;;;;;18.73;4.82;;;20.40;99.90;;;;;;5015471;28;20022;-58
2023/02/13 11:54:32;;;;;;;13.30;5.55;;;20.40;99.90;;;;;;5015812;28;20038;-58
2023/02/13 11:57:02;;;;;;;13.48;5.40;;;20.50;99.90;;;;;;5027770;28;20033;-57
2023/02/13 11:59:32;;;;;;;14.80;5.65;;;20.50;99.90;;;;;;5015653;28;20439;-58
2023/02/13 12:02:28;;;;;;;12.90;5.30;;;20.50;99.90;;;;;;5016817;28;20121;-57
2023/02/13 12:05:19;;;;;;;11.43;4.90;;;20.60;99.90;;;;;;5005794;28;20434;-58
2023/02/13 12:07:46;;;;;;;11.55;5.28;;;20.60;99.90;;;;;;5027106;28;20033;-58
2023/02/13 12:10:17;;;;;;;14.77;4.83;;;20.70;99.90;;;;;;5020268;28;21236;-60
2023/02/13 12:12:55;;;;;;;11.98;5.43;;;20.70;99.90;;;;;;5016679;28;20313;-58
2023/02/13 12:15:25;;;;;;;;;;;20.70;99.90;;;;;;5031543;28;20041;-56
2023/02/13 12:18:24;;;;;;;9.45;5.07;;;20.80;99.90;;;;;;5030484;28;19905;-58
2023/02/13 12:21:21;;;;;;;13.57;6.03;;;20.80;99.90;;;;;;5015606;28;20030;-57
2023/02/13 12:23:56;;;;;;;10.30;5.28;;;20.90;99.90;;;;;;5023004;28;20454;-58
2023/02/13 12:26:33;;;;;;;11.02;6.03;;;20.90;99.90;;;;;;5019992;28;20056;-58
2023/02/13 12:29:10;;;;;;;12.48;6.20;;;21.00;99.90;;;;;;5031092;28;20018;-58
2023/02/13 12:31:58;;;;;;;11.35;6.10;;;21.00;99.90;;;;;;5031327;28;20115;-58
2023/02/13 12:35:17;;;;;;;13.60;7.00;;;21.00;99.90;;;;;;5030386;28;20030;-59
2023/02/13 12:37:59;;;;;;;14.40;6.30;;;21.00;99.90;;;;;;4933403;29;20023;-59
2023/02/13 12:40:28;;;;;;;18.45;6.90;;;21.00;99.90;;;;;;5013892;28;20037;-59
2023/02/13 12:43:03;;;;;;;13.25;7.35;;;21.10;99.90;;;;;;5020823;28;20104;-58
2023/02/13 12:45:37;;;;;;;14.43;6.85;;;21.10;99.90;;;;;;5023438;28;20033;-58
2023/02/13 12:48:28;;;;;;;13.02;6.85;;;21.10;99.90;;;;;;5028539;28;20025;-58
2023/02/13 12:51:17;;;;;;;13.93;6.82;;;21.20;99.90;;;;;;5028790;28;20079;-59
2023/02/13 12:54:14;;;;;;;11.88;7.30;;;21.20;99.90;;;;;;4995844;28;20049;-59
2023/02/13 12:57:09;;;;;;;14.25;7.78;;;21.20;99.90;;;;;;5018465;28;20088;-60
2023/02/13 13:00:02;;;;;;;14.68;8.60;;;21.20;99.90;;;;;;5029587;28;20036;-57
2023/02/13 13:02:49;;;;;;;15.32;7.53;;;21.30;99.90;;;;;;5024743;28;20030;-59
2023/02/13 13:05:33;;;;;;;12.73;7.90;;;21.30;99.90;;;;;;5026297;28;20014;-58
2023/02/13 13:08:33;;;;;;;14.82;8.30;;;21.40;99.90;;;;;;5027686;28;20041;-57
2023/02/13 13:11:16;;;;;;;14.93;8.20;;;21.40;99.90;;;;;;5027876;28;20033;-57
2023/02/13 13:14:07;;;;;;;12.32;7.57;;;21.40;99.90;;;;;;5026908;28;20018;-57
2023/02/13 13:16:36;;;;;;;11.15;7.35;;;21.50;99.90;;;;;;5019811;28;20025;-59
2023/02/13 13:19:14;;;;;;;15.23;9.07;;;21.50;99.90;;;;;;5011333;28;20033;-59
2023/02/13 13:22:24;;;;;;;13.55;8.52;;;21.50;99.90;;;;;;5019714;28;20037;-58
2023/02/13 13:24:58;;;;;;;14.27;8.52;;;21.50;99.90;;;;;;4932961;29;20115;-58
2023/02/13 13:27:31;;;;;;;16.67;9.13;;;21.50;99.90;;;;;;4927882;29;20425;-58
2023/02/13 13:29:59;;;;;;;15.15;9.20;;;21.60;99.90;;;;;;4971191;28;20026;-57
2023/02/13 13:32:26;;;;;;;19.50;9.15;;;21.60;99.90;;;;;;5016112;28;20033;-58
2023/02/13 13:34:53;;;;;;;14.73;8.57;;;21.60;99.90;;;;;;5009307;28;20059;-54
2023/02/13 13:37:21;;;;;;;14.82;8.10;;;21.60;99.90;;;;;;4983417;28;20068;-58
2023/02/13 13:40:22;;;;;;;13.35;8.90;;;21.60;99.90;;;;;;5016482;28;20411;-60
2023/02/13 13:43:18;;;;;;;14.40;8.35;;;21.60;99.90;;;;;;5019205;28;20033;-56